Time;durP1;ratioP1;P1;durP2;ratioP2;P2;SDS_P1;SDS_P2;PMS_P1;PMS_P2;Temp;Humidity;BMP_temperature;BMP_pressure;BME280_temperature;BME280_humidity;BME280_pressure;Samples;Min_cycle;Max_cycle;Signal;HPM_P1;HPM_P2
2021/04/20 00:01:41;;;;;;;43.6;39.0;;;;;;;8.1;62.5;101680;;;;
2021/04/20 00:07:41;;;;;;;43.6;39.0;;;;;;;8.0;62.7;101680;;;;
2021/04/20 00:13:41;;;;;;;43.6;39.0;;;;;;;7.9;62.7;101680;;;;
2021/04/20 00:25:41;;;;;;;42.7;38.2;;;;;;;7.8;63.1;101670;;;;
2021/04/20 00:27:41;;;;;;;42.7;38.2;;;;;;;7.9;63.9;101670;;;;
2021/04/20 00:29:41;;;;;;;42.7;38.2;;;;;;;7.8;63.5;101670;;;;
2021/04/20 00:35:41;;;;;;;42.7;38.2;;;;;;;7.7;64.2;101670;;;;
2021/04/20 00:39:41;;;;;;;41.9;37.2;;;;;;;7.8;63.3;101670;;;;
2021/04/20 00:41:41;;;;;;;41.9;37.2;;;;;;;7.7;63.2;101660;;;;
2021/04/20 00:43:41;;;;;;;41.9;37.2;;;;;;;7.6;63.5;101660;;;;
2021/04/20 00:47:41;;;;;;;41.9;37.2;;;;;;;7.5;63.1;101660;;;;
2021/04/20 00:53:41;;;;;;;41.9;37.2;;;;;;;7.4;63.3;101670;;;;
2021/04/20 00:59:41;;;;;;;42.3;36.1;;;;;;;7.5;63.2;101670;;;;
2021/04/20 01:01:41;;;;;;;42.3;36.1;;;;;;;7.4;63.2;101670;;;;
2021/04/20 01:03:41;;;;;;;42.3;36.1;;;;;;;7.3;63.3;101670;;;;
2021/04/20 01:15:41;;;;;;;42.3;36.1;;;;;;;7.2;63.3;101660;;;;
2021/04/20 01:21:41;;;;;;;39.7;35.5;;;;;;;7.1;63.3;101650;;;;
2021/04/20 01:31:41;;;;;;;39.7;35.5;;;;;;;7.0;64.1;101650;;;;
2021/04/20 01:37:41;;;;;;;39.7;35.5;;;;;;;6.9;64.1;101650;;;;
2021/04/20 01:39:41;;;;;;;40.4;35.7;;;;;;;7.1;64.4;101650;;;;
2021/04/20 01:41:41;;;;;;;40.4;35.7;;;;;;;7.0;64.1;101650;;;;
2021/04/20 01:43:41;;;;;;;40.4;35.7;;;;;;;6.9;64.4;101650;;;;
2021/04/20 01:53:41;;;;;;;40.4;35.7;;;;;;;6.8;64.2;101640;;;;
2021/04/20 01:57:41;;;;;;;40.4;35.7;;;;;;;6.7;64.1;101650;;;;
2021/04/20 01:59:41;;;;;;;39.3;34.8;;;;;;;6.8;64.0;101650;;;;
2021/04/20 02:01:41;;;;;;;39.3;34.8;;;;;;;6.7;64.2;101650;;;;
2021/04/20 02:07:41;;;;;;;39.3;34.8;;;;;;;6.6;64.1;101650;;;;
2021/04/20 02:17:41;;;;;;;39.3;34.8;;;;;;;6.5;64.3;101650;;;;
2021/04/20 02:19:41;;;;;;;40.1;35.3;;;;;;;6.6;64.2;101650;;;;
2021/04/20 02:21:41;;;;;;;40.1;35.3;;;;;;;6.5;64.0;101640;;;;
2021/04/20 02:23:41;;;;;;;40.1;35.3;;;;;;;6.4;64.2;101640;;;;
2021/04/20 02:33:41;;;;;;;40.1;35.3;;;;;;;6.3;64.2;101640;;;;
2021/04/20 02:37:41;;;;;;;40.1;35.3;;;;;;;6.2;67.3;101640;;;;
2021/04/20 02:39:41;;;;;;;39.6;35.3;;;;;;;6.3;65.2;101640;;;;
2021/04/20 02:45:41;;;;;;;39.6;35.3;;;;;;;6.2;64.3;101640;;;;
2021/04/20 03:03:41;;;;;;;38.8;34.6;;;;;;;6.1;64.7;101640;;;;
2021/04/20 03:09:41;;;;;;;38.8;34.6;;;;;;;6.0;66.2;101640;;;;
2021/04/20 03:17:41;;;;;;;38.8;34.6;;;;;;;6.1;65.2;101630;;;;
2021/04/20 03:19:41;;;;;;;38.1;33.0;;;;;;;6.0;65.1;101630;;;;
2021/04/20 03:23:41;;;;;;;38.1;33.0;;;;;;;5.9;66.6;101630;;;;
2021/04/20 03:27:41;;;;;;;38.1;33.0;;;;;;;5.8;67.8;101630;;;;
2021/04/20 03:35:41;;;;;;;38.1;33.0;;;;;;;5.9;66.0;101620;;;;
2021/04/20 03:37:41;;;;;;;38.1;33.0;;;;;;;5.7;67.3;101620;;;;
2021/04/20 03:39:41;;;;;;;34.1;30.4;;;;;;;5.8;66.0;101620;;;;
2021/04/20 03:53:41;;;;;;;34.1;30.4;;;;;;;5.7;65.5;101610;;;;
2021/04/20 03:55:41;;;;;;;34.1;30.4;;;;;;;5.8;66.1;101610;;;;
2021/04/20 03:57:41;;;;;;;34.1;30.4;;;;;;;5.7;66.3;101610;;;;
2021/04/20 04:01:41;;;;;;;33.8;30.1;;;;;;;5.6;65.5;101610;;;;
2021/04/20 04:09:41;;;;;;;33.8;30.1;;;;;;;5.5;66.9;101600;;;;
2021/04/20 04:23:42;;;;;;;34.2;30.5;;;;;;;5.4;66.2;101600;;;;
2021/04/20 04:29:41;;;;;;;34.2;30.5;;;;;;;5.5;65.8;101600;;;;
2021/04/20 04:31:44;;;;;;;34.2;30.5;;;;;;;5.3;66.9;101600;;;;
2021/04/20 04:37:41;;;;;;;34.2;30.5;;;;;;;5.4;66.1;101600;;;;
2021/04/20 04:43:42;;;;;;;33.7;30.0;;;;;;;5.3;65.7;101600;;;;
2021/04/20 04:51:41;;;;;;;33.7;30.0;;;;;;;5.2;65.8;101600;;;;
2021/04/20 04:53:42;;;;;;;33.7;30.0;;;;;;;5.3;65.7;101600;;;;
2021/04/20 04:57:41;;;;;;;33.7;30.0;;;;;;;5.2;65.7;101610;;;;
2021/04/20 04:59:41;;;;;;;43.7;36.9;;;;;;;5.3;65.7;101610;;;;
2021/04/20 05:01:41;;;;;;;43.7;36.9;;;;;;;5.2;65.7;101610;;;;
2021/04/20 05:09:41;;;;;;;43.7;36.9;;;;;;;5.3;65.8;101610;;;;
2021/04/20 05:11:41;;;;;;;43.7;36.9;;;;;;;5.2;65.6;101610;;;;
2021/04/20 05:15:41;;;;;;;43.7;36.9;;;;;;;5.3;65.9;101620;;;;
2021/04/20 05:17:41;;;;;;;43.7;36.9;;;;;;;5.2;66.0;101620;;;;
2021/04/20 05:19:41;;;;;;;48.9;41.4;;;;;;;5.4;65.6;101610;;;;
2021/04/20 05:21:41;;;;;;;48.9;41.4;;;;;;;5.3;65.8;101620;;;;
2021/04/20 05:27:41;;;;;;;48.9;41.4;;;;;;;5.4;65.5;101620;;;;
2021/04/20 05:35:41;;;;;;;48.9;41.4;;;;;;;5.5;65.8;101620;;;;
2021/04/20 05:43:41;;;;;;;51.7;41.1;;;;;;;5.6;67.0;101620;;;;
2021/04/20 05:47:41;;;;;;;51.7;41.1;;;;;;;5.7;67.3;101620;;;;
2021/04/20 05:51:41;;;;;;;51.7;41.1;;;;;;;5.8;68.0;101620;;;;
2021/04/20 05:55:41;;;;;;;51.7;41.1;;;;;;;5.9;67.3;101620;;;;
2021/04/20 06:01:41;;;;;;;56.3;43.8;;;;;;;6.1;71.2;101620;;;;
2021/04/20 06:03:41;;;;;;;56.3;43.8;;;;;;;6.2;69.3;101620;;;;
2021/04/20 06:09:41;;;;;;;56.3;43.8;;;;;;;6.3;71.5;101630;;;;
2021/04/20 06:11:41;;;;;;;56.3;43.8;;;;;;;6.4;71.0;101620;;;;
2021/04/20 06:13:41;;;;;;;56.3;43.8;;;;;;;6.5;70.2;101630;;;;
2021/04/20 06:17:41;;;;;;;56.3;43.8;;;;;;;6.6;71.6;101630;;;;
2021/04/20 06:19:41;;;;;;;60.7;47.9;;;;;;;6.7;70.5;101630;;;;
2021/04/20 06:21:41;;;;;;;60.7;47.9;;;;;;;6.9;71.5;101640;;;;
2021/04/20 06:25:41;;;;;;;60.7;47.9;;;;;;;6.8;72.0;101640;;;;
2021/04/20 06:27:41;;;;;;;60.7;47.9;;;;;;;7.0;71.9;101630;;;;
2021/04/20 06:29:41;;;;;;;60.7;47.9;;;;;;;7.1;71.1;101630;;;;
2021/04/20 06:31:41;;;;;;;60.7;47.9;;;;;;;7.0;71.4;101640;;;;
2021/04/20 06:33:45;;;;;;;60.7;47.9;;;;;;;7.1;71.3;101640;;;;
2021/04/20 06:37:41;;;;;;;60.7;47.9;;;;;;;7.4;71.3;101640;;;;
2021/04/20 06:39:41;;;;;;;57.4;46.6;;;;;;;7.5;72.3;101650;;;;
2021/04/20 06:41:41;;;;;;;57.4;46.6;;;;;;;7.4;72.6;101650;;;;
2021/04/20 06:43:42;;;;;;;57.4;46.6;;;;;;;7.6;72.8;101650;;;;
2021/04/20 06:45:41;;;;;;;57.4;46.6;;;;;;;7.5;72.9;101640;;;;
2021/04/20 06:47:41;;;;;;;57.4;46.6;;;;;;;7.7;72.6;101650;;;;
2021/04/20 06:51:41;;;;;;;57.4;46.6;;;;;;;7.8;72.5;101640;;;;
2021/04/20 06:53:42;;;;;;;57.4;46.6;;;;;;;8.0;72.8;101640;;;;
2021/04/20 06:55:46;;;;;;;57.4;46.6;;;;;;;7.9;72.7;101640;;;;
2021/04/20 06:59:41;;;;;;;57.0;48.1;;;;;;;8.1;72.8;101640;;;;
2021/04/20 07:03:42;;;;;;;57.0;48.1;;;;;;;8.3;72.8;101640;;;;
2021/04/20 07:07:41;;;;;;;57.0;48.1;;;;;;;8.4;72.2;101630;;;;
2021/04/20 07:09:41;;;;;;;57.0;48.1;;;;;;;8.5;72.8;101630;;;;
2021/04/20 07:11:41;;;;;;;57.0;48.1;;;;;;;8.6;72.0;101630;;;;
2021/04/20 07:17:41;;;;;;;57.0;48.1;;;;;;;8.9;71.2;101630;;;;
2021/04/20 07:19:41;;;;;;;53.2;47.0;;;;;;;8.8;72.1;101640;;;;
2021/04/20 07:21:41;;;;;;;53.2;47.0;;;;;;;9.2;70.8;101640;;;;
2021/04/20 07:23:42;;;;;;;53.2;47.0;;;;;;;9.1;70.9;101630;;;;
2021/04/20 07:25:41;;;;;;;53.2;47.0;;;;;;;9.0;71.5;101630;;;;
2021/04/20 07:27:41;;;;;;;53.2;47.0;;;;;;;9.3;70.7;101630;;;;
2021/04/20 07:33:41;;;;;;;53.2;47.0;;;;;;;9.5;70.3;101640;;;;
2021/04/20 07:37:41;;;;;;;54.7;47.5;;;;;;;9.4;70.0;101630;;;;
2021/04/20 07:39:41;;;;;;;54.7;47.5;;;;;;;9.5;70.0;101630;;;;
2021/04/20 07:41:41;;;;;;;54.7;47.5;;;;;;;9.6;70.4;101630;;;;
2021/04/20 07:43:42;;;;;;;54.7;47.5;;;;;;;9.8;69.8;101630;;;;
2021/04/20 07:47:41;;;;;;;54.7;47.5;;;;;;;9.9;69.5;101640;;;;
2021/04/20 07:51:41;;;;;;;54.7;47.5;;;;;;;10.0;68.9;101630;;;;
2021/04/20 07:53:42;;;;;;;54.7;47.5;;;;;;;10.1;68.9;101630;;;;
2021/04/20 07:55:41;;;;;;;54.7;47.5;;;;;;;10.0;69.4;101630;;;;
2021/04/20 07:59:41;;;;;;;59.3;50.0;;;;;;;10.1;69.2;101630;;;;
2021/04/20 08:03:42;;;;;;;59.3;50.0;;;;;;;10.2;69.3;101630;;;;
2021/04/20 08:05:41;;;;;;;59.3;50.0;;;;;;;10.4;68.7;101630;;;;
2021/04/20 08:09:41;;;;;;;59.3;50.0;;;;;;;10.6;68.7;101630;;;;
2021/04/20 08:11:41;;;;;;;59.3;50.0;;;;;;;10.7;68.3;101630;;;;
2021/04/20 08:15:41;;;;;;;59.3;50.0;;;;;;;10.8;67.0;101630;;;;
2021/04/20 08:17:41;;;;;;;55.9;48.2;;;;;;;10.9;67.9;101630;;;;
2021/04/20 08:19:41;;;;;;;55.9;48.2;;;;;;;11.0;67.1;101630;;;;
2021/04/20 08:25:41;;;;;;;55.9;48.2;;;;;;;11.1;66.9;101620;;;;
2021/04/20 08:27:41;;;;;;;55.9;48.2;;;;;;;11.2;66.0;101620;;;;
2021/04/20 08:31:42;;;;;;;55.9;48.2;;;;;;;11.3;66.7;101620;;;;
2021/04/20 08:33:43;;;;;;;55.9;48.2;;;;;;;11.5;65.6;101620;;;;
2021/04/20 08:37:41;;;;;;;44.2;39.5;;;;;;;12.0;64.3;101620;;;;
2021/04/20 08:39:41;;;;;;;44.2;39.5;;;;;;;11.8;65.0;101610;;;;
2021/04/20 08:41:41;;;;;;;44.2;39.5;;;;;;;12.0;63.2;101620;;;;
2021/04/20 08:45:42;;;;;;;44.2;39.5;;;;;;;12.1;64.3;101620;;;;
2021/04/20 08:47:42;;;;;;;44.2;39.5;;;;;;;12.2;63.8;101620;;;;
2021/04/20 08:53:42;;;;;;;44.2;39.5;;;;;;;12.3;61.9;101610;;;;
2021/04/20 08:55:41;;;;;;;44.2;39.5;;;;;;;12.1;62.3;101610;;;;
2021/04/20 08:57:41;;;;;;;37.7;33.7;;;;;;;12.3;62.4;101610;;;;
2021/04/20 08:59:41;;;;;;;37.7;33.7;;;;;;;12.2;62.8;101610;;;;
2021/04/20 09:03:42;;;;;;;37.7;33.7;;;;;;;12.5;62.8;101610;;;;
2021/04/20 09:05:41;;;;;;;37.7;33.7;;;;;;;12.6;62.3;101610;;;;
2021/04/20 09:07:41;;;;;;;37.7;33.7;;;;;;;12.7;62.6;101610;;;;
2021/04/20 09:09:42;;;;;;;37.7;33.7;;;;;;;12.9;62.9;101610;;;;
2021/04/20 09:11:41;;;;;;;37.7;33.7;;;;;;;13.0;62.2;101610;;;;
2021/04/20 09:13:49;;;;;;;37.7;33.7;;;;;;;12.9;63.5;101610;;;;
2021/04/20 09:15:41;;;;;;;37.7;33.7;;;;;;;13.1;62.4;101610;;;;
2021/04/20 09:17:41;;;;;;;37.3;33.3;;;;;;;13.2;60.9;101610;;;;
2021/04/20 09:19:41;;;;;;;37.3;33.3;;;;;;;13.3;60.6;101610;;;;
2021/04/20 09:21:41;;;;;;;37.3;33.3;;;;;;;13.4;60.6;101610;;;;
2021/04/20 09:23:42;;;;;;;37.3;33.3;;;;;;;13.5;59.3;101610;;;;
2021/04/20 09:29:41;;;;;;;37.3;33.3;;;;;;;13.3;58.6;101620;;;;
2021/04/20 09:33:42;;;;;;;37.3;33.3;;;;;;;13.5;60.3;101610;;;;
2021/04/20 09:35:41;;;;;;;37.3;33.3;;;;;;;13.6;58.9;101610;;;;
2021/04/20 09:37:41;;;;;;;32.8;28.6;;;;;;;13.5;58.9;101610;;;;
2021/04/20 09:39:41;;;;;;;32.8;28.6;;;;;;;13.6;59.1;101610;;;;
2021/04/20 09:41:41;;;;;;;32.8;28.6;;;;;;;13.7;59.9;101610;;;;
2021/04/20 09:43:42;;;;;;;32.8;28.6;;;;;;;13.9;58.8;101610;;;;
2021/04/20 09:47:41;;;;;;;32.8;28.6;;;;;;;14.1;57.6;101610;;;;
2021/04/20 09:49:41;;;;;;;32.8;28.6;;;;;;;14.3;56.8;101610;;;;
2021/04/20 09:51:41;;;;;;;32.8;28.6;;;;;;;14.4;55.9;101600;;;;
2021/04/20 09:55:41;;;;;;;32.8;28.6;;;;;;;14.6;52.9;101610;;;;
2021/04/20 10:01:42;;;;;;;15.9;14.4;;;;;;;14.5;48.0;101610;;;;
2021/04/20 10:03:51;;;;;;;15.9;14.4;;;;;;;14.6;51.2;101610;;;;
2021/04/20 10:07:41;;;;;;;15.9;14.4;;;;;;;14.7;52.5;101610;;;;
2021/04/20 10:09:41;;;;;;;15.9;14.4;;;;;;;14.9;52.5;101610;;;;
2021/04/20 10:15:41;;;;;;;15.9;14.4;;;;;;;15.0;52.2;101610;;;;
2021/04/20 10:17:41;;;;;;;19.4;17.5;;;;;;;14.9;48.4;101610;;;;
2021/04/20 10:19:41;;;;;;;19.4;17.5;;;;;;;15.1;50.5;101610;;;;
2021/04/20 10:23:41;;;;;;;19.4;17.5;;;;;;;15.3;50.5;101600;;;;
2021/04/20 10:25:41;;;;;;;19.4;17.5;;;;;;;15.5;49.3;101600;;;;
2021/04/20 10:27:41;;;;;;;19.4;17.5;;;;;;;15.3;47.6;101600;;;;
2021/04/20 10:31:41;;;;;;;19.4;17.5;;;;;;;15.4;49.9;101600;;;;
2021/04/20 10:33:42;;;;;;;19.4;17.5;;;;;;;15.6;48.6;101590;;;;
2021/04/20 10:37:41;;;;;;;21.1;19.0;;;;;;;15.4;47.5;101590;;;;
2021/04/20 10:39:41;;;;;;;21.1;19.0;;;;;;;15.5;49.0;101590;;;;
2021/04/20 10:41:41;;;;;;;21.1;19.0;;;;;;;15.8;46.8;101580;;;;
2021/04/20 10:45:41;;;;;;;21.1;19.0;;;;;;;15.9;48.4;101580;;;;
2021/04/20 10:47:41;;;;;;;21.1;19.0;;;;;;;16.2;48.5;101580;;;;
2021/04/20 10:49:41;;;;;;;21.1;19.0;;;;;;;16.4;48.5;101580;;;;
2021/04/20 10:51:41;;;;;;;21.1;19.0;;;;;;;16.5;46.2;101570;;;;
2021/04/20 10:53:41;;;;;;;21.1;19.0;;;;;;;16.6;46.3;101570;;;;
2021/04/20 10:55:41;;;;;;;21.1;19.0;;;;;;;16.7;47.3;101570;;;;
2021/04/20 10:57:41;;;;;;;22.0;20.0;;;;;;;16.8;47.4;101570;;;;
2021/04/20 11:01:41;;;;;;;22.0;20.0;;;;;;;16.4;46.5;101570;;;;
2021/04/20 11:03:41;;;;;;;22.0;20.0;;;;;;;16.6;46.4;101560;;;;
2021/04/20 11:05:41;;;;;;;22.0;20.0;;;;;;;17.0;44.9;101560;;;;
2021/04/20 11:07:41;;;;;;;22.0;20.0;;;;;;;16.9;43.7;101560;;;;
2021/04/20 11:09:41;;;;;;;22.0;20.0;;;;;;;17.2;44.4;101560;;;;
2021/04/20 11:11:41;;;;;;;22.0;20.0;;;;;;;17.4;46.1;101560;;;;
2021/04/20 11:13:43;;;;;;;22.0;20.0;;;;;;;17.5;44.6;101560;;;;
2021/04/20 11:15:41;;;;;;;22.0;20.0;;;;;;;17.3;42.4;101560;;;;
2021/04/20 11:17:41;;;;;;;20.8;18.8;;;;;;;17.1;42.2;101550;;;;
2021/04/20 11:19:41;;;;;;;20.8;18.8;;;;;;;17.2;42.7;101560;;;;
2021/04/20 11:21:41;;;;;;;20.8;18.8;;;;;;;17.4;42.4;101560;;;;
2021/04/20 11:23:42;;;;;;;20.8;18.8;;;;;;;17.3;43.1;101550;;;;
2021/04/20 11:25:41;;;;;;;20.8;18.8;;;;;;;17.6;40.6;101550;;;;
2021/04/20 11:27:41;;;;;;;20.8;18.8;;;;;;;17.8;42.7;101540;;;;
2021/04/20 11:29:41;;;;;;;20.8;18.8;;;;;;;17.9;41.0;101540;;;;
2021/04/20 11:31:41;;;;;;;20.8;18.8;;;;;;;18.0;42.5;101540;;;;
2021/04/20 11:33:41;;;;;;;20.8;18.8;;;;;;;18.2;40.7;101540;;;;
2021/04/20 11:35:41;;;;;;;20.8;18.8;;;;;;;18.0;41.0;101540;;;;
2021/04/20 11:43:41;;;;;;;23.3;21.1;;;;;;;18.3;42.6;101540;;;;
2021/04/20 11:45:41;;;;;;;23.3;21.1;;;;;;;18.4;42.0;101540;;;;
2021/04/20 11:47:41;;;;;;;23.3;21.1;;;;;;;18.5;41.6;101540;;;;
2021/04/20 11:49:41;;;;;;;23.3;21.1;;;;;;;18.6;42.4;101540;;;;
2021/04/20 11:51:42;;;;;;;23.3;21.1;;;;;;;18.5;40.9;101540;;;;
2021/04/20 11:53:41;;;;;;;23.3;21.1;;;;;;;18.1;39.5;101530;;;;
2021/04/20 11:55:43;;;;;;;23.3;21.1;;;;;;;18.4;42.0;101540;;;;
2021/04/20 11:57:41;;;;;;;21.0;19.2;;;;;;;18.3;39.8;101530;;;;
2021/04/20 11:59:42;;;;;;;21.0;19.2;;;;;;;18.4;41.1;101530;;;;
2021/04/20 12:01:41;;;;;;;21.0;19.2;;;;;;;18.6;39.9;101530;;;;
2021/04/20 12:03:41;;;;;;;21.0;19.2;;;;;;;18.8;41.0;101530;;;;
2021/04/20 12:05:41;;;;;;;21.0;19.2;;;;;;;18.5;40.1;101530;;;;
2021/04/20 12:07:41;;;;;;;21.0;19.2;;;;;;;18.3;39.7;101520;;;;
2021/04/20 12:09:41;;;;;;;21.0;19.2;;;;;;;18.2;38.6;101520;;;;
2021/04/20 12:11:41;;;;;;;21.0;19.2;;;;;;;18.0;37.5;101520;;;;
2021/04/20 12:13:44;;;;;;;21.0;19.2;;;;;;;17.9;37.6;101520;;;;
2021/04/20 12:15:41;;;;;;;21.0;19.2;;;;;;;18.3;40.5;101520;;;;
2021/04/20 12:17:41;;;;;;;20.5;18.6;;;;;;;18.7;42.0;101520;;;;
2021/04/20 12:19:41;;;;;;;20.5;18.6;;;;;;;18.8;39.4;101520;;;;
2021/04/20 12:21:41;;;;;;;20.5;18.6;;;;;;;18.7;37.5;101510;;;;
2021/04/20 12:23:41;;;;;;;20.5;18.6;;;;;;;18.2;37.4;101510;;;;
2021/04/20 12:27:41;;;;;;;20.5;18.6;;;;;;;17.8;38.7;101510;;;;
2021/04/20 12:29:41;;;;;;;20.5;18.6;;;;;;;18.1;38.9;101510;;;;
2021/04/20 12:31:41;;;;;;;20.5;18.6;;;;;;;18.0;38.8;101520;;;;
2021/04/20 12:33:41;;;;;;;20.5;18.6;;;;;;;18.3;39.8;101520;;;;
2021/04/20 12:35:42;;;;;;;20.5;18.6;;;;;;;18.5;38.6;101520;;;;
2021/04/20 12:37:41;;;;;;;21.7;19.8;;;;;;;18.3;37.7;101520;;;;
2021/04/20 12:41:41;;;;;;;21.7;19.8;;;;;;;18.6;39.7;101510;;;;
2021/04/20 12:43:42;;;;;;;21.7;19.8;;;;;;;18.8;39.5;101520;;;;
2021/04/20 12:45:41;;;;;;;21.7;19.8;;;;;;;18.9;38.9;101520;;;;
2021/04/20 12:49:41;;;;;;;21.7;19.8;;;;;;;18.5;37.9;101520;;;;
2021/04/20 12:51:41;;;;;;;21.7;19.8;;;;;;;18.2;39.2;101510;;;;
2021/04/20 12:53:41;;;;;;;21.7;19.8;;;;;;;18.4;38.4;101510;;;;
2021/04/20 12:55:41;;;;;;;21.7;19.8;;;;;;;18.5;39.7;101510;;;;
2021/04/20 12:57:41;;;;;;;23.5;21.4;;;;;;;18.8;40.2;101500;;;;
2021/04/20 12:59:41;;;;;;;23.5;21.4;;;;;;;18.6;36.6;101500;;;;
2021/04/20 13:01:41;;;;;;;23.5;21.4;;;;;;;18.5;37.7;101500;;;;
2021/04/20 13:05:41;;;;;;;23.5;21.4;;;;;;;18.4;36.3;101500;;;;
2021/04/20 13:07:41;;;;;;;23.5;21.4;;;;;;;18.1;36.4;101500;;;;
2021/04/20 13:11:41;;;;;;;23.5;21.4;;;;;;;18.3;38.3;101490;;;;
2021/04/20 13:13:41;;;;;;;23.5;21.4;;;;;;;18.6;38.5;101490;;;;
2021/04/20 13:15:41;;;;;;;23.5;21.4;;;;;;;18.4;39.3;101490;;;;
2021/04/20 13:17:41;;;;;;;23.2;21.1;;;;;;;18.2;38.6;101490;;;;
2021/04/20 13:19:41;;;;;;;23.2;21.1;;;;;;;18.4;42.0;101490;;;;
2021/04/20 13:23:41;;;;;;;23.2;21.1;;;;;;;18.8;38.4;101480;;;;
2021/04/20 13:25:41;;;;;;;23.2;21.1;;;;;;;18.5;37.6;101480;;;;
2021/04/20 13:27:41;;;;;;;23.2;21.1;;;;;;;18.6;37.8;101480;;;;
2021/04/20 13:29:41;;;;;;;23.2;21.1;;;;;;;18.7;37.1;101480;;;;
2021/04/20 13:31:41;;;;;;;23.2;21.1;;;;;;;18.8;37.7;101480;;;;
2021/04/20 13:33:41;;;;;;;23.2;21.1;;;;;;;18.7;37.8;101480;;;;
2021/04/20 13:35:41;;;;;;;23.2;21.1;;;;;;;18.8;39.2;101470;;;;
2021/04/20 13:37:41;;;;;;;22.7;20.7;;;;;;;19.0;38.6;101470;;;;
2021/04/20 13:39:41;;;;;;;22.7;20.7;;;;;;;19.1;38.5;101460;;;;
2021/04/20 13:41:41;;;;;;;22.7;20.7;;;;;;;19.2;38.2;101470;;;;
2021/04/20 13:43:41;;;;;;;22.7;20.7;;;;;;;19.3;40.0;101470;;;;
2021/04/20 13:45:41;;;;;;;22.7;20.7;;;;;;;19.2;37.2;101460;;;;
2021/04/20 13:47:51;;;;;;;22.7;20.7;;;;;;;19.1;38.3;101460;;;;
2021/04/20 13:49:41;;;;;;;22.7;20.7;;;;;;;19.2;37.9;101460;;;;
2021/04/20 13:55:41;;;;;;;22.7;20.7;;;;;;;19.0;40.0;101460;;;;
2021/04/20 13:57:41;;;;;;;22.4;20.5;;;;;;;19.4;37.6;101450;;;;
2021/04/20 14:01:41;;;;;;;22.4;20.5;;;;;;;19.3;36.6;101450;;;;
2021/04/20 14:03:50;;;;;;;22.4;20.5;;;;;;;19.4;39.2;101440;;;;
2021/04/20 14:05:42;;;;;;;22.4;20.5;;;;;;;19.6;37.3;101440;;;;
2021/04/20 14:07:41;;;;;;;22.4;20.5;;;;;;;19.5;38.5;101440;;;;
2021/04/20 14:09:41;;;;;;;22.4;20.5;;;;;;;19.3;35.5;101430;;;;
2021/04/20 14:11:41;;;;;;;22.4;20.5;;;;;;;19.5;37.0;101440;;;;
2021/04/20 14:15:41;;;;;;;22.4;20.5;;;;;;;19.8;37.3;101430;;;;
2021/04/20 14:17:43;;;;;;;22.3;20.4;;;;;;;19.4;36.5;101430;;;;
2021/04/20 14:19:41;;;;;;;22.3;20.4;;;;;;;19.2;34.4;101430;;;;
2021/04/20 14:21:44;;;;;;;22.3;20.4;;;;;;;19.1;35.9;101430;;;;
2021/04/20 14:23:41;;;;;;;22.3;20.4;;;;;;;19.8;36.7;101430;;;;
2021/04/20 14:25:41;;;;;;;22.3;20.4;;;;;;;19.9;36.7;101420;;;;
2021/04/20 14:27:41;;;;;;;22.3;20.4;;;;;;;20.2;36.5;101420;;;;
2021/04/20 14:29:41;;;;;;;22.3;20.4;;;;;;;20.1;35.0;101420;;;;
2021/04/20 14:31:41;;;;;;;22.3;20.4;;;;;;;19.8;35.6;101420;;;;
2021/04/20 14:33:42;;;;;;;22.3;20.4;;;;;;;20.1;35.2;101420;;;;
2021/04/20 14:35:41;;;;;;;22.3;20.4;;;;;;;20.3;36.4;101420;;;;
2021/04/20 14:39:41;;;;;;;20.5;18.8;;;;;;;20.5;35.6;101420;;;;
2021/04/20 14:41:41;;;;;;;20.5;18.8;;;;;;;20.8;34.1;101420;;;;
2021/04/20 14:43:42;;;;;;;20.5;18.8;;;;;;;20.7;33.8;101420;;;;
2021/04/20 14:45:41;;;;;;;20.5;18.8;;;;;;;20.6;38.7;101420;;;;
2021/04/20 14:47:41;;;;;;;20.5;18.8;;;;;;;20.8;35.4;101420;;;;
2021/04/20 14:49:42;;;;;;;20.5;18.8;;;;;;;20.4;33.5;101420;;;;
2021/04/20 14:51:41;;;;;;;20.5;18.8;;;;;;;20.7;39.8;101420;;;;
2021/04/20 14:53:42;;;;;;;20.5;18.8;;;;;;;20.9;39.5;101410;;;;
2021/04/20 14:55:41;;;;;;;20.5;18.8;;;;;;;21.2;38.8;101410;;;;
2021/04/20 14:57:43;;;;;;;21.3;19.4;;;;;;;21.3;35.2;101400;;;;
2021/04/20 14:59:41;;;;;;;21.3;19.4;;;;;;;20.9;33.8;101400;;;;
2021/04/20 15:01:51;;;;;;;21.3;19.4;;;;;;;20.0;33.4;101410;;;;
2021/04/20 15:03:41;;;;;;;21.3;19.4;;;;;;;19.9;34.1;101410;;;;
2021/04/20 15:05:41;;;;;;;21.3;19.4;;;;;;;20.0;34.0;101410;;;;
2021/04/20 15:07:41;;;;;;;21.3;19.4;;;;;;;19.9;33.7;101410;;;;
2021/04/20 15:09:41;;;;;;;21.3;19.4;;;;;;;20.0;38.6;101410;;;;
2021/04/20 15:11:41;;;;;;;21.3;19.4;;;;;;;20.3;37.1;101410;;;;
2021/04/20 15:13:41;;;;;;;21.3;19.4;;;;;;;20.2;33.9;101410;;;;
2021/04/20 15:15:41;;;;;;;21.3;19.4;;;;;;;19.9;36.5;101410;;;;
2021/04/20 15:17:41;;;;;;;24.9;22.5;;;;;;;19.8;34.0;101410;;;;
2021/04/20 15:19:41;;;;;;;24.9;22.5;;;;;;;19.7;35.6;101410;;;;
2021/04/20 15:21:50;;;;;;;24.9;22.5;;;;;;;19.8;38.5;101420;;;;
2021/04/20 15:23:41;;;;;;;24.9;22.5;;;;;;;19.9;41.6;101410;;;;
2021/04/20 15:25:41;;;;;;;24.9;22.5;;;;;;;20.1;42.2;101410;;;;
2021/04/20 15:29:41;;;;;;;24.9;22.5;;;;;;;19.9;41.7;101410;;;;
2021/04/20 15:31:41;;;;;;;24.9;22.5;;;;;;;19.8;41.1;101410;;;;
2021/04/20 15:33:41;;;;;;;24.9;22.5;;;;;;;19.7;38.2;101410;;;;
2021/04/20 15:35:43;;;;;;;24.9;22.5;;;;;;;19.6;37.7;101410;;;;
2021/04/20 15:37:41;;;;;;;22.9;20.8;;;;;;;19.7;37.5;101400;;;;
2021/04/20 15:39:42;;;;;;;22.9;20.8;;;;;;;19.6;42.4;101410;;;;
2021/04/20 15:43:43;;;;;;;22.9;20.8;;;;;;;19.9;43.1;101410;;;;
2021/04/20 15:45:41;;;;;;;22.9;20.8;;;;;;;19.5;38.3;101400;;;;
2021/04/20 15:47:41;;;;;;;22.9;20.8;;;;;;;19.6;38.3;101400;;;;
2021/04/20 15:49:43;;;;;;;22.9;20.8;;;;;;;19.4;37.9;101410;;;;
2021/04/20 15:51:41;;;;;;;22.9;20.8;;;;;;;19.5;40.0;101410;;;;
2021/04/20 15:53:41;;;;;;;22.9;20.8;;;;;;;19.1;37.4;101400;;;;
2021/04/20 15:55:42;;;;;;;22.9;20.8;;;;;;;19.0;39.0;101410;;;;
2021/04/20 15:57:41;;;;;;;24.2;22.0;;;;;;;19.1;38.3;101400;;;;
2021/04/20 16:01:41;;;;;;;24.2;22.0;;;;;;;19.4;42.1;101400;;;;
2021/04/20 16:03:41;;;;;;;24.2;22.0;;;;;;;19.3;40.3;101400;;;;
2021/04/20 16:05:41;;;;;;;24.2;22.0;;;;;;;19.4;43.6;101400;;;;
2021/04/20 16:07:41;;;;;;;24.2;22.0;;;;;;;19.0;37.5;101400;;;;
2021/04/20 16:13:41;;;;;;;24.2;22.0;;;;;;;19.1;38.9;101400;;;;
2021/04/20 16:15:42;;;;;;;24.2;22.0;;;;;;;19.2;39.1;101400;;;;
2021/04/20 16:17:41;;;;;;;24.8;22.7;;;;;;;19.4;41.6;101400;;;;
2021/04/20 16:19:41;;;;;;;24.8;22.7;;;;;;;19.5;40.4;101400;;;;
2021/04/20 16:25:41;;;;;;;24.8;22.7;;;;;;;19.7;40.8;101400;;;;
2021/04/20 16:29:41;;;;;;;24.8;22.7;;;;;;;19.5;37.9;101400;;;;
2021/04/20 16:33:41;;;;;;;24.8;22.7;;;;;;;19.9;38.4;101390;;;;
2021/04/20 16:35:41;;;;;;;24.8;22.7;;;;;;;20.2;36.3;101390;;;;
2021/04/20 16:37:41;;;;;;;24.6;22.5;;;;;;;20.3;39.2;101390;;;;
2021/04/20 16:39:41;;;;;;;24.6;22.5;;;;;;;20.4;36.9;101390;;;;
2021/04/20 16:41:41;;;;;;;24.6;22.5;;;;;;;20.3;36.5;101390;;;;
2021/04/20 16:43:41;;;;;;;24.6;22.5;;;;;;;19.9;37.1;101390;;;;
2021/04/20 16:45:41;;;;;;;24.6;22.5;;;;;;;19.6;35.6;101380;;;;
2021/04/20 16:47:41;;;;;;;24.6;22.5;;;;;;;19.9;36.0;101390;;;;
2021/04/20 16:49:41;;;;;;;24.6;22.5;;;;;;;20.0;35.5;101390;;;;
2021/04/20 16:51:41;;;;;;;24.6;22.5;;;;;;;20.5;35.8;101380;;;;
2021/04/20 16:53:41;;;;;;;24.6;22.5;;;;;;;20.3;36.9;101390;;;;
2021/04/20 16:55:41;;;;;;;24.6;22.5;;;;;;;20.6;40.5;101380;;;;
2021/04/20 16:57:42;;;;;;;24.7;22.5;;;;;;;20.8;35.0;101380;;;;
2021/04/20 16:59:41;;;;;;;24.7;22.5;;;;;;;20.6;35.2;101380;;;;
2021/04/20 17:01:41;;;;;;;24.7;22.5;;;;;;;21.1;41.6;101380;;;;
2021/04/20 17:03:41;;;;;;;24.7;22.5;;;;;;;21.2;40.2;101380;;;;
2021/04/20 17:05:41;;;;;;;24.7;22.5;;;;;;;20.7;35.4;101380;;;;
2021/04/20 17:07:41;;;;;;;24.7;22.5;;;;;;;21.0;39.8;101370;;;;
2021/04/20 17:09:41;;;;;;;24.7;22.5;;;;;;;21.4;37.8;101380;;;;
2021/04/20 17:11:41;;;;;;;24.7;22.5;;;;;;;21.3;37.8;101380;;;;
2021/04/20 17:13:41;;;;;;;24.7;22.5;;;;;;;21.1;35.3;101370;;;;
2021/04/20 17:17:41;;;;;;;23.3;21.3;;;;;;;21.2;37.4;101370;;;;
2021/04/20 17:21:42;;;;;;;23.3;21.3;;;;;;;21.0;35.7;101370;;;;
2021/04/20 17:25:41;;;;;;;23.3;21.3;;;;;;;20.9;34.1;101370;;;;
2021/04/20 17:27:41;;;;;;;23.3;21.3;;;;;;;21.0;36.5;101370;;;;
2021/04/20 17:29:41;;;;;;;23.3;21.3;;;;;;;20.8;33.3;101370;;;;
2021/04/20 17:31:42;;;;;;;23.3;21.3;;;;;;;20.6;36.4;101370;;;;
2021/04/20 17:33:41;;;;;;;23.3;21.3;;;;;;;20.3;36.2;101370;;;;
2021/04/20 17:35:41;;;;;;;23.3;21.3;;;;;;;20.2;38.7;101380;;;;
2021/04/20 17:37:41;;;;;;;21.9;20.0;;;;;;;20.1;38.5;101370;;;;
2021/04/20 17:41:41;;;;;;;21.9;20.0;;;;;;;20.0;38.1;101370;;;;
2021/04/20 17:43:41;;;;;;;21.9;20.0;;;;;;;19.9;41.9;101370;;;;
2021/04/20 17:45:41;;;;;;;21.9;20.0;;;;;;;19.8;39.0;101370;;;;
2021/04/20 17:47:41;;;;;;;21.9;20.0;;;;;;;19.6;40.4;101370;;;;
2021/04/20 17:49:41;;;;;;;21.9;20.0;;;;;;;19.5;38.6;101370;;;;
2021/04/20 17:53:41;;;;;;;21.9;20.0;;;;;;;19.4;40.0;101370;;;;
2021/04/20 17:55:41;;;;;;;21.9;20.0;;;;;;;19.2;39.7;101370;;;;
2021/04/20 17:59:41;;;;;;;21.8;19.7;;;;;;;19.1;40.6;101370;;;;
2021/04/20 18:01:41;;;;;;;21.8;19.7;;;;;;;19.0;40.7;101380;;;;
2021/04/20 18:03:41;;;;;;;21.8;19.7;;;;;;;18.9;41.9;101380;;;;
2021/04/20 18:05:41;;;;;;;21.8;19.7;;;;;;;18.7;42.5;101380;;;;
2021/04/20 18:09:41;;;;;;;21.8;19.7;;;;;;;18.6;42.4;101390;;;;
2021/04/20 18:13:41;;;;;;;21.8;19.7;;;;;;;18.5;40.7;101380;;;;
2021/04/20 18:15:41;;;;;;;21.8;19.7;;;;;;;18.4;41.7;101380;;;;
2021/04/20 18:17:42;;;;;;;22.1;19.9;;;;;;;18.3;44.0;101390;;;;
2021/04/20 18:19:42;;;;;;;22.1;19.9;;;;;;;18.2;44.6;101390;;;;
2021/04/20 18:21:41;;;;;;;22.1;19.9;;;;;;;18.1;42.3;101390;;;;
2021/04/20 18:25:41;;;;;;;22.1;19.9;;;;;;;18.0;41.9;101390;;;;
2021/04/20 18:27:42;;;;;;;22.1;19.9;;;;;;;17.9;42.6;101390;;;;
2021/04/20 18:29:42;;;;;;;22.1;19.9;;;;;;;17.8;43.9;101390;;;;
2021/04/20 18:33:41;;;;;;;22.1;19.9;;;;;;;17.7;43.4;101400;;;;
2021/04/20 18:35:41;;;;;;;22.1;19.9;;;;;;;17.6;44.6;101390;;;;
2021/04/20 18:39:42;;;;;;;21.4;19.3;;;;;;;17.5;44.9;101400;;;;
2021/04/20 18:43:41;;;;;;;21.4;19.3;;;;;;;17.4;45.9;101410;;;;
2021/04/20 18:45:41;;;;;;;21.4;19.3;;;;;;;17.3;44.4;101410;;;;
2021/04/20 18:47:41;;;;;;;21.4;19.3;;;;;;;17.2;44.0;101410;;;;
2021/04/20 18:49:42;;;;;;;21.4;19.3;;;;;;;17.1;45.3;101410;;;;
2021/04/20 18:53:41;;;;;;;21.4;19.3;;;;;;;17.0;44.7;101410;;;;